Latest Weather Observations for Alice Springs Airport

IDD60801

Issued at 4:21 pm CST Thursday 18 July 2024 (issued every 10 minutes, with the page automatically refreshed every 10 minutes)

About weather observations | Map of weather stations | Latest weather observations for NT | Other Formats
Station Details ID: 015590 Name: ALICE SPRINGS AIRPORT Lat: -23.80 Lon: 133.89 Height: 546.0 m
Data from the previous 72 hours. | See also: Recent months at Alice Springs Airport
Date/Time
CST
Temp
°C
App
Temp
°C
Dew
Point
°C
Rel
Hum
%
Delta-T
°C
Wind Press
QNH
hPa
Press
MSL
hPa
Rain since
9am
mm
Dir  Spd
km/h
Gust
km/h
Spd
kts
Gust
kts
18/04:00pm 17.9 13.4 -0.4 29 8.1 E 13 22 7 12 1021.5 1021.3 0.0
18/03:30pm 17.5 13.7 -0.7 29 8.0 E 9 19 5 10 1021.4 1021.2 0.0
18/03:00pm 17.5 14.2 0.2 31 7.7 E 7 13 4 7 1021.8 1021.5 0.0
18/02:30pm 16.7 12.6 -0.5 31 7.5 E 11 17 6 9 1022.2 1021.9 0.0
18/02:00pm 16.3 11.9 0.4 34 7.1 ENE 13 22 7 12 1022.4 1022.1 0.0
18/01:30pm 15.7 11.6 -0.5 33 7.0 NNE 11 17 6 9 1022.9 1022.7 0.0
18/01:00pm 15.2 11.2 0.6 37 6.5 ENE 11 17 6 9 1023.6 1023.4 0.0
18/12:30pm 14.8 10.5 1.3 40 6.0 ENE 13 20 7 11 1024.5 1024.3 0.0
18/12:00pm 15.0 11.2 1.9 41 5.9 ENE 11 20 6 11 1024.8 1024.6 0.0
18/11:30am 14.3 9.8 2.2 44 5.5 ENE 15 26 8 14 1025.3 1025.1 0.0
18/11:00am 12.9 7.6 1.9 47 4.9 ENE 19 26 10 14 1025.5 1025.4 0.0
18/10:30am 12.6 7.7 2.2 49 4.6 ENE 17 24 9 13 1026.0 1025.8 0.0
18/10:00am 11.7 5.9 2.2 52 4.2 ENE 22 30 12 16 1026.2 1026.0 0.0
18/09:30am 11.0 6.6 2.6 56 3.7 ENE 15 20 8 11 1025.8 1025.6 0.0
18/09:00am 8.1 6.6 3.0 70 2.2 CALM 0 0 0 0 1025.9 1025.7 0.0
18/08:43am 5.9 3.2 2.4 78 1.5 W 6 7 3 4 1026.0 1025.8 0.0
18/08:30am 5.0 2.3 2.5 84 1.0 W 6 7 3 4 1025.9 1025.7 0.0
18/08:25am 4.6 1.8 2.3 85 1.0 W 6 7 3 4 1025.8 1025.6 0.0
18/08:00am 2.0 -1.2 0.5 90 0.6 W 7 7 4 4 1025.4 1025.2 0.0
18/07:30am 0.2 -3.6 -0.9 92 0.4 WNW 9 11 5 6 1025.3 1025.1 0.0
18/07:00am -0.2 -3.7 -1.5 91 0.5 W 7 9 4 5 1025.2 1025.0 0.0
18/06:30am -0.1 -4.0 -1.4 91 0.5 W 9 11 5 6 1024.7 1024.5 0.0
18/06:00am -0.4 -3.8 -2.0 89 0.5 WNW 6 7 3 4 1024.5 1024.3 0.0
18/05:30am 0.1 -3.4 -1.2 91 0.5 NW 7 9 4 5 1024.1 1023.9 0.0
18/05:00am -0.3 -3.7 -2.2 87 0.7 N 6 7 3 4 1024.1 1023.9 0.0
18/04:30am 1.3 -1.9 -0.6 87 0.7 NNW 6 7 3 4 1024.2 1024.0 0.0
18/04:00am 1.6 -1.8 -0.5 86 0.8 WNW 7 9 4 5 1024.5 1024.3 0.0
18/03:30am 1.5 -1.9 -0.6 86 0.8 W 7 7 4 4 1024.5 1024.3 0.0
18/03:00am 2.1 -1.3 -0.5 83 1.0 W 7 7 4 4 1024.1 1023.9 0.0
18/02:30am 2.0 -1.3 -0.2 85 0.8 W 7 11 4 6 1024.2 1024.0 0.0
18/02:00am 1.5 -2.0 -1.1 83 1.0 WNW 7 9 4 5 1024.3 1024.1 0.0
18/01:30am 1.7 -1.7 -0.9 83 1.0 WNW 7 7 4 4 1024.4 1024.2 0.0
18/01:00am 2.7 -1.1 -0.6 79 1.2 WNW 9 11 5 6 1024.6 1024.4 0.0
18/12:30am 2.9 -1.3 -0.7 77 1.4 W 11 11 6 6 1024.8 1024.6 0.0
18/12:00am 3.4 -0.3 -0.2 77 1.4 W 9 11 5 6 1025.1 1024.9 0.0
 
Date/Time
CST
Temp
°C
App
Temp
°C
Dew
Point
°C
Rel
Hum
%
Delta-T
°C
Wind Press
QNH
hPa
Press
MSL
hPa
Rain since
9am
mm
Dir  Spd
km/h
Gust
km/h
Spd
kts
Gust
kts
17/11:30pm 2.7 0.6 -1.1 76 1.4 CALM 0 0 0 0 1025.0 1024.8 0.0
17/11:00pm 3.9 1.9 -0.1 75 1.6 CALM 0 0 0 0 1024.8 1024.6 0.0
17/10:30pm 6.1 2.4 0.0 65 2.4 WNW 9 9 5 5 1025.2 1025.0 0.0
17/10:00pm 5.8 1.4 0.2 67 2.2 W 13 15 7 8 1025.3 1025.1 0.0
17/09:30pm 6.2 2.5 0.1 65 2.4 WNW 9 11 5 6 1025.3 1025.1 0.0
17/09:00pm 5.6 3.5 -0.7 64 2.4 CALM 0 0 0 0 1024.9 1024.7 0.0
17/08:30pm 7.3 4.0 -0.2 59 3.0 SSE 7 9 4 5 1024.7 1024.5 0.0
17/08:00pm 8.5 4.8 0.0 55 3.5 SSE 9 11 5 6 1024.8 1024.6 0.0
17/07:30pm 9.8 6.0 -0.4 49 4.2 S 9 11 5 6 1024.4 1024.2 0.0
17/07:00pm 10.0 5.9 -0.2 49 4.2 S 11 13 6 7 1024.0 1023.7 0.0
17/06:30pm 10.8 6.7 -0.3 46 4.6 S 11 11 6 6 1024.0 1023.7 0.0
17/06:00pm 13.2 8.6 -0.8 38 5.9 S 13 17 7 9 1023.9 1023.6 0.0
17/05:30pm 14.9 9.1 -1.2 33 6.8 SSW 19 26 10 14 1023.5 1023.3 0.0
17/05:00pm 15.7 9.7 -1.4 31 7.3 S 20 26 11 14 1023.1 1022.9 0.0
17/04:30pm 15.7 11.1 -1.4 31 7.3 SSW 13 20 7 11 1022.6 1022.4 0.0
17/04:00pm 16.0 11.3 -1.5 30 7.5 S 13 22 7 12 1022.3 1022.0 0.0
17/03:30pm 16.1 11.4 -1.9 29 7.6 S 13 22 7 12 1022.2 1021.9 0.0
17/03:00pm 16.1 10.7 -1.5 30 7.5 S 17 26 9 14 1022.6 1022.4 0.0
17/02:30pm 15.4 10.4 -1.2 32 7.0 SW 15 26 8 14 1022.8 1022.6 0.0
17/02:00pm 15.1 10.4 -1.5 32 7.0 SSW 13 20 7 11 1023.2 1023.0 0.0
17/01:30pm 15.2 10.2 -0.9 33 6.9 SW 15 24 8 13 1023.8 1023.5 0.0
17/01:00pm 14.2 9.7 -0.3 37 6.2 SSW 13 24 7 13 1024.1 1023.9 0.0
17/12:30pm 14.2 9.4 0.1 38 6.1 ESE 15 32 8 17 1024.5 1024.3 0.0
17/12:00pm 13.5 8.2 -0.5 38 5.9 ESE 17 26 9 14 1025.2 1025.0 0.0
17/11:30am 13.6 8.1 0.6 41 5.6 SSE 19 28 10 15 1026.0 1025.8 0.0
17/11:00am 13.0 7.2 0.1 41 5.5 S 20 35 11 19 1026.7 1026.5 0.0
17/10:30am 12.5 6.0 0.3 43 5.2 S 24 32 13 17 1026.8 1026.6 0.0
17/10:00am 11.8 5.4 0.9 47 4.7 SSE 24 33 13 18 1026.9 1026.7 0.0
17/09:30am 10.6 6.9 2.4 57 3.6 S 11 15 6 8 1026.7 1026.5 0.0
17/09:00am 8.0 5.2 2.9 70 2.2 SW 7 11 4 6 1026.5 1026.3 0.0
17/08:30am 5.4 2.1 2.6 82 1.2 WSW 9 11 5 6 1026.3 1026.1 0.0
17/08:00am 2.5 -1.0 1.3 92 0.5 W 9 13 5 7 1025.8 1025.6 0.0
17/07:30am 0.6 -3.2 -0.5 92 0.4 W 9 11 5 6 1025.3 1025.1 0.0
17/07:00am 1.2 -2.5 0.0 92 0.5 W 9 13 5 7 1025.1 1024.9 0.0
17/06:30am 1.0 -3.1 0.1 94 0.3 W 11 11 6 6 1025.0 1024.8 0.0
17/06:00am 0.8 -3.3 -0.3 92 0.4 W 11 13 6 7 1024.8 1024.6 0.0
17/05:30am 0.7 -3.5 -0.6 91 0.5 WNW 11 13 6 7 1024.5 1024.3 0.0
17/05:00am 1.7 -1.9 0.5 92 0.5 WNW 9 11 5 6 1024.1 1023.9 0.0
17/04:30am 1.5 -2.2 0.0 90 0.6 W 9 9 5 5 1023.6 1023.4 0.0
17/04:00am 1.8 -1.3 0.2 89 0.6 W 6 7 3 4 1023.6 1023.4 0.0
17/03:30am 2.2 -1.1 0.4 88 0.7 W 7 9 4 5 1023.6 1023.4 0.0
17/03:00am 3.1 -0.4 1.0 86 0.8 W 9 9 5 5 1023.6 1023.4 0.0
17/02:30am 3.4 -0.2 0.8 83 1.0 WNW 9 9 5 5 1023.9 1023.6 0.0
17/02:00am 3.3 0.1 1.0 85 0.9 WNW 7 9 4 5 1024.1 1023.9 0.0
17/01:30am 3.4 0.4 0.6 82 1.1 WNW 6 7 3 4 1024.3 1024.1 0.0
17/01:00am 3.8 0.8 0.7 80 1.2 WNW 6 7 3 4 1024.3 1024.1 0.0
17/12:30am 4.6 1.1 1.1 78 1.4 WNW 9 9 5 5 1024.4 1024.2 0.0
17/12:00am 4.0 1.0 0.9 80 1.2 SSW 6 7 3 4 1024.5 1024.3 0.0
 
Date/Time
CST
Temp
°C
App
Temp
°C
Dew
Point
°C
Rel
Hum
%
Delta-T
°C
Wind Press
QNH
hPa
Press
MSL
hPa
Rain since
9am
mm
Dir  Spd
km/h
Gust
km/h
Spd
kts
Gust
kts
16/11:30pm 4.4 1.4 0.7 77 1.5 SSW 6 6 3 3 1024.6 1024.4 0.0
16/11:00pm 5.4 1.8 0.8 72 1.9 SSW 9 11 5 6 1024.8 1024.6 0.0
16/10:30pm 5.7 2.6 1.2 73 1.8 SSW 7 9 4 5 1024.6 1024.4 0.0
16/10:00pm 6.1 3.1 0.9 69 2.1 SW 6 7 3 4 1024.4 1024.2 0.0
16/09:30pm 7.1 4.0 1.2 66 2.4 SSW 7 9 4 5 1024.3 1024.1 0.0
16/09:00pm 7.8 4.7 1.2 63 2.7 SSW 7 9 4 5 1024.2 1024.0 0.0
16/08:30pm 8.7 4.8 1.4 60 3.1 S 11 11 6 6 1024.0 1023.7 0.0
16/08:00pm 9.3 5.8 1.2 57 3.4 S 9 13 5 7 1023.6 1023.4 0.0
16/07:30pm 9.5 5.9 0.9 55 3.6 S 9 9 5 5 1023.2 1023.0 0.0
16/07:00pm 9.9 5.9 0.8 53 3.9 S 11 13 6 7 1022.8 1022.6 0.0
16/06:30pm 11.1 7.1 0.8 49 4.4 SSW 11 13 6 7 1022.4 1022.1 0.0
16/06:00pm 13.4 9.1 0.8 42 5.5 S 13 15 7 8 1022.3 1022.0 0.0
16/05:30pm 15.1 9.5 0.9 38 6.3 S 20 30 11 16 1022.0 1021.7 0.0
16/05:00pm 15.6 9.1 0.6 36 6.7 S 24 33 13 18 1021.8 1021.5 0.0
16/04:30pm 16.1 10.3 -0.2 33 7.1 S 20 35 11 19 1021.4 1021.2 0.0
16/04:00pm 16.2 9.6 -0.1 33 7.2 S 24 33 13 18 1021.5 1021.3 0.0
16/03:30pm 16.5 10.2 -0.7 31 7.5 SSW 22 33 12 18 1021.4 1021.2 0.0
16/03:00pm 16.4 9.4 -0.3 32 7.3 SSW 26 37 14 20 1021.4 1021.2 0.0
16/02:30pm 16.2 10.1 0.3 34 7.0 S 22 37 12 20 1021.8 1021.5 0.0
16/02:00pm 16.0 9.9 0.2 34 7.0 SW 22 52 12 28 1022.0 1021.7 0.0
16/01:30pm 15.8 10.1 0.8 36 6.7 S 20 37 11 20 1022.3 1022.0 0.0
16/01:00pm 16.3 10.7 1.2 36 6.8 S 20 32 11 17 1022.7 1022.5 0.0
16/12:30pm 15.5 10.0 1.6 39 6.3 S 20 32 11 17 1023.1 1022.9 0.0
16/12:00pm 15.8 10.6 2.2 40 6.2 S 19 35 10 19 1023.9 1023.6 0.0
16/11:30am 15.4 10.8 1.5 39 6.2 SSE 15 24 8 13 1024.3 1024.1 0.0
16/11:00am 14.3 9.4 1.9 43 5.6 S 17 28 9 15 1024.7 1024.5 0.0
16/10:30am 13.8 8.8 1.5 43 5.5 SSE 17 28 9 15 1024.8 1024.6 0.0
16/10:00am 12.9 8.9 3.0 51 4.5 SE 13 19 7 10 1024.8 1024.6 0.0
16/09:30am 11.7 8.2 3.5 57 3.7 SSE 11 17 6 9 1024.7 1024.5 0.0
16/09:00am 9.6 7.4 3.6 66 2.7 WSW 4 7 2 4 1024.3 1024.1 0.0
16/08:30am 7.8 5.3 3.7 75 1.8 WSW 6 7 3 4 1023.9 1023.6 0.0
16/08:00am 5.1 1.5 3.1 87 0.9 WNW 11 11 6 6 1023.3 1023.1 0.0
16/07:30am 3.4 -0.5 1.1 85 0.9 NW 11 11 6 6 1023.1 1022.9 0.0
16/07:00am 3.4 -0.1 1.1 85 0.9 NW 9 11 5 6 1022.8 1022.6 0.0
16/06:30am 2.9 1.0 0.6 85 0.9 CALM 0 0 0 0 1022.5 1022.3 0.0
16/06:00am 3.5 1.3 0.9 83 1.0 W 2 7 1 4 1022.2 1021.9 0.0
16/05:30am 4.0 1.0 1.0 81 1.2 SW 6 11 3 6 1021.9 1021.6 0.0
16/05:00am 4.6 1.1 1.1 78 1.4 WSW 9 9 5 5 1021.6 1021.4 0.0
16/04:30am 4.6 1.0 0.9 77 1.5 W 9 9 5 5 1021.4 1021.2 0.0
16/04:00am 4.5 1.2 0.1 73 1.7 NW 7 9 4 5 1021.4 1021.2 0.0
16/03:30am 5.0 1.4 0.8 74 1.7 WNW 9 11 5 6 1021.3 1021.1 0.0
16/03:00am 5.3 1.7 0.9 73 1.8 W 9 11 5 6 1021.2 1021.0 0.0
16/02:30am 4.8 2.1 0.4 73 1.7 SW 4 6 2 3 1021.2 1021.0 0.0
16/02:00am 5.4 2.4 1.0 73 1.8 SW 6 9 3 5 1021.3 1021.1 0.0
16/01:30am 4.9 1.3 0.9 75 1.6 W 9 11 5 6 1021.2 1021.0 0.0
16/01:00am 4.6 0.7 0.9 77 1.5 W 11 13 6 7 1020.9 1020.7 0.0
16/12:30am 4.7 1.5 0.7 75 1.6 W 7 9 4 5 1020.8 1020.5 0.0
16/12:00am 5.3 1.4 0.9 73 1.8 SSW 11 13 6 7 1020.9 1020.7 0.0
 
Date/Time
CST
Temp
°C
App
Temp
°C
Dew
Point
°C
Rel
Hum
%
Delta-T
°C
Wind Press
QNH
hPa
Press
MSL
hPa
Rain since
9am
mm
Dir  Spd
km/h
Gust
km/h
Spd
kts
Gust
kts
15/11:30pm 6.4 2.9 1.1 69 2.2 W 9 11 5 6 1020.7 1020.4 0.0
15/11:00pm 6.0 2.0 0.8 69 2.1 WNW 11 11 6 6 1020.8 1020.5 0.0
15/10:30pm 5.9 2.4 1.1 71 2.0 WNW 9 11 5 6 1020.8 1020.5 0.0
15/10:00pm 7.4 4.9 1.3 65 2.5 SSW 4 11 2 6 1020.8 1020.5 0.0
15/09:30pm 7.9 6.1 0.9 61 2.9 CALM 0 0 0 0 1020.7 1020.4 0.0
15/09:00pm 8.5 6.7 1.0 59 3.1 CALM 0 0 0 0 1020.5 1020.2 0.0
15/08:30pm 9.0 6.3 0.5 55 3.5 SSE 4 6 2 3 1020.4 1020.1 0.0
15/08:00pm 10.4 6.8 0.7 51 4.1 SSE 9 9 5 5 1020.1 1019.8 0.0
15/07:30pm 10.9 6.9 0.6 49 4.4 SSE 11 13 6 7 1019.6 1019.4 0.0
15/07:00pm 11.6 7.6 0.7 47 4.7 SSE 11 13 6 7 1019.1 1018.8 0.0
15/06:30pm 13.6 9.3 0.9 42 5.6 S 13 15 7 8 1018.9 1018.6 0.0
15/06:00pm 15.6 10.8 0.2 35 6.8 S 15 22 8 12 1018.5 1018.2 0.0
15/05:30pm 17.2 12.0 0.4 32 7.5 S 17 26 9 14 1018.0 1017.7 0.0
15/05:00pm 17.9 13.5 0.6 31 7.8 S 13 20 7 11 1017.9 1017.6 0.0
15/04:30pm 18.3 13.1 0.0 29 8.2 SSW 17 26 9 14 1017.5 1017.2 0.0

Other formats

Comma delimited format used in spreadsheet applications
http://www.bom.gov.au/fwo/IDD60801/IDD60801.94326.axf

JavaScript Object Notation format (JSON) in row-major order
http://www.bom.gov.au/fwo/IDD60801/IDD60801.94326.json

Data quality

Most of these data are generated automatically and are frequently updated. Quality checks on data are not normally performed. It is possible for incorrect values to appear. Refer to information at About Latest Weather Observations and please check the disclaimer before using these data.